Pagina principale
METAR-TAF:

METAR-TAF

Aeroporti :

Aeroporto di Bucarest-Henri Coandă

Bucarest, Romania

latitudine: 44-33N, longitudine: 026-06E, altezza: 95 m

Osservazione

Il bollettino è stato emesso 41 minuti fa, alle 23:00 UTC
Vento 5 kt da ovest/sud-ovest
Temperature 7°C
Umidità 45%
Pressione 1016 hPa
Visibilità 10 km o più
nessuna nube inferiore a 1500 m e nessun cumulonembo

METAR: LROP 242300Z 25005KT CAVOK 07/M04 Q1016 NOSIG

Ora: 01:41 (23:41 UTC)

Previsione

Il bollettino è stato emesso 41 minuti fa, alle 23:00 UTC
Previsione valida dal 25 alle 00 UTC al 25 alle 24 UTC
Vento 4 kt da direzioni variabili
Visibilità 10 km o più
nessuna nube inferiore a 1500 m e nessun cumulonembo
Evoluzione graduale
dal 25 alle 09 UTC al 25 alle 11 UTC
Vento 12 kt da ovest/sud-ovest

TAF: LROP 242300Z 2500/2524 VRB04KT CAVOK BECMG 2509/2511 24012KT

Osservazioni e previsioni meteorologiche di più di 4000 aeroporti (messaggi METAR e TAF).

Le stazioni disponibili sono rappresentate dai dischi gialli e rossi sulla carta.

Puntare il mouse per vedere il nome della stazione.

Clicca sopra per visualizzare le osservazioni e previsioni meteorologiche.

Per cambiare la mappa : fare clic sui pulsanti verdi con una croce nera per ingrandire, il pulsante verde con un trattino per diminuire, o sulla freccia verde per le mappe adiacenti.


METAR-TAF: